sensor_id;sensor_type;location;lat;lon;timestamp;P1;durP1;ratioP1;P2;durP2;ratioP2
69623;SDS011;56843;52.020;5.670;2023-02-28T00:00:34;2.50;;;0.98;;
69623;SDS011;56843;52.020;5.670;2023-02-28T00:02:06;3.28;;;0.98;;
69623;SDS011;56843;52.020;5.670;2023-02-28T00:03:36;4.50;;;1.37;;
69623;SDS011;56843;52.020;5.670;2023-02-28T00:05:07;5.28;;;1.30;;
69623;SDS011;56843;52.020;5.670;2023-02-28T00:06:39;3.67;;;1.10;;
69623;SDS011;56843;52.020;5.670;2023-02-28T00:08:09;2.80;;;1.20;;
69623;SDS011;56843;52.020;5.670;2023-02-28T00:09:40;5.37;;;1.40;;
69623;SDS011;56843;52.020;5.670;2023-02-28T00:11:11;3.15;;;1.05;;
69623;SDS011;56843;52.020;5.670;2023-02-28T00:12:43;3.53;;;1.10;;
69623;SDS011;56843;52.020;5.670;2023-02-28T00:14:14;4.73;;;1.10;;
69623;SDS011;56843;52.020;5.670;2023-02-28T00:15:44;4.03;;;1.00;;
69623;SDS011;56843;52.020;5.670;2023-02-28T00:17:15;2.50;;;0.90;;
69623;SDS011;56843;52.020;5.670;2023-02-28T00:18:48;8.60;;;1.10;;
69623;SDS011;56843;52.020;5.670;2023-02-28T00:20:19;3.60;;;1.05;;
69623;SDS011;56843;52.020;5.670;2023-02-28T00:21:50;3.05;;;0.98;;
69623;SDS011;56843;52.020;5.670;2023-02-28T00:23:20;3.70;;;1.00;;
69623;SDS011;56843;52.020;5.670;2023-02-28T00:24:51;2.63;;;1.20;;
69623;SDS011;56843;52.020;5.670;2023-02-28T00:26:21;3.87;;;1.20;;
69623;SDS011;56843;52.020;5.670;2023-02-28T00:27:53;3.10;;;1.00;;
69623;SDS011;56843;52.020;5.670;2023-02-28T00:29:23;3.03;;;0.90;;
69623;SDS011;56843;52.020;5.670;2023-02-28T00:30:54;3.07;;;1.03;;
69623;SDS011;56843;52.020;5.670;2023-02-28T00:32:24;6.13;;;1.33;;
69623;SDS011;56843;52.020;5.670;2023-02-28T00:33:55;6.93;;;0.90;;
69623;SDS011;56843;52.020;5.670;2023-02-28T00:35:25;2.80;;;1.10;;
69623;SDS011;56843;52.020;5.670;2023-02-28T00:36:56;2.40;;;0.90;;
69623;SDS011;56843;52.020;5.670;2023-02-28T00:38:26;4.13;;;1.10;;
69623;SDS011;56843;52.020;5.670;2023-02-28T00:39:57;3.47;;;1.20;;
69623;SDS011;56843;52.020;5.670;2023-02-28T00:41:28;4.55;;;1.25;;
69623;SDS011;56843;52.020;5.670;2023-02-28T00:42:58;3.80;;;1.20;;
69623;SDS011;56843;52.020;5.670;2023-02-28T00:44:29;2.33;;;0.90;;
69623;SDS011;56843;52.020;5.670;2023-02-28T00:46:00;2.70;;;0.93;;
69623;SDS011;56843;52.020;5.670;2023-02-28T00:47:32;4.60;;;1.00;;
69623;SDS011;56843;52.020;5.670;2023-02-28T00:49:02;2.92;;;1.08;;
69623;SDS011;56843;52.020;5.670;2023-02-28T00:50:33;3.73;;;1.30;;
69623;SDS011;56843;52.020;5.670;2023-02-28T00:52:03;4.03;;;1.10;;
69623;SDS011;56843;52.020;5.670;2023-02-28T00:53:34;2.72;;;0.90;;
69623;SDS011;56843;52.020;5.670;2023-02-28T00:55:04;2.73;;;1.10;;
69623;SDS011;56843;52.020;5.670;2023-02-28T00:56:35;3.83;;;1.23;;
69623;SDS011;56843;52.020;5.670;2023-02-28T00:58:05;3.77;;;1.20;;
69623;SDS011;56843;52.020;5.670;2023-02-28T00:59:36;3.60;;;1.10;;
69623;SDS011;56843;52.020;5.670;2023-02-28T01:01:06;3.07;;;1.00;;
69623;SDS011;56843;52.020;5.670;2023-02-28T01:02:37;5.23;;;1.57;;
69623;SDS011;56843;52.020;5.670;2023-02-28T01:04:08;2.67;;;1.10;;
69623;SDS011;56843;52.020;5.670;2023-02-28T01:05:39;4.63;;;1.00;;
69623;SDS011;56843;52.020;5.670;2023-02-28T01:07:11;4.37;;;1.33;;
69623;SDS011;56843;52.020;5.670;2023-02-28T01:08:42;3.60;;;1.20;;
69623;SDS011;56843;52.020;5.670;2023-02-28T01:10:12;3.53;;;1.07;;
69623;SDS011;56843;52.020;5.670;2023-02-28T01:11:42;2.85;;;0.90;;
69623;SDS011;56843;52.020;5.670;2023-02-28T01:13:14;4.47;;;1.13;;
69623;SDS011;56843;52.020;5.670;2023-02-28T01:14:45;4.10;;;1.17;;
69623;SDS011;56843;52.020;5.670;2023-02-28T01:16:15;3.72;;;1.00;;
69623;SDS011;56843;52.020;5.670;2023-02-28T01:17:46;2.80;;;0.90;;
69623;SDS011;56843;52.020;5.670;2023-02-28T01:19:16;5.50;;;1.30;;
69623;SDS011;56843;52.020;5.670;2023-02-28T01:20:47;2.72;;;0.90;;
69623;SDS011;56843;52.020;5.670;2023-02-28T01:22:20;8.45;;;1.30;;
69623;SDS011;56843;52.020;5.670;2023-02-28T01:23:50;2.83;;;1.10;;
69623;SDS011;56843;52.020;5.670;2023-02-28T01:25:21;2.53;;;0.80;;
69623;SDS011;56843;52.020;5.670;2023-02-28T01:26:52;4.70;;;1.10;;
69623;SDS011;56843;52.020;5.670;2023-02-28T01:28:22;3.33;;;1.03;;
69623;SDS011;56843;52.020;5.670;2023-02-28T01:29:54;3.10;;;1.15;;
69623;SDS011;56843;52.020;5.670;2023-02-28T01:31:24;4.30;;;1.90;;
69623;SDS011;56843;52.020;5.670;2023-02-28T01:32:55;2.73;;;1.10;;
69623;SDS011;56843;52.020;5.670;2023-02-28T01:34:26;7.03;;;1.15;;
69623;SDS011;56843;52.020;5.670;2023-02-28T01:36:00;13.03;;;1.50;;
69623;SDS011;56843;52.020;5.670;2023-02-28T01:37:34;12.85;;;2.03;;
69623;SDS011;56843;52.020;5.670;2023-02-28T01:39:05;10.17;;;1.60;;
69623;SDS011;56843;52.020;5.670;2023-02-28T01:40:35;6.38;;;1.52;;
69623;SDS011;56843;52.020;5.670;2023-02-28T01:42:07;7.93;;;1.43;;
69623;SDS011;56843;52.020;5.670;2023-02-28T01:45:18;5.25;;;1.30;;
69623;SDS011;56843;52.020;5.670;2023-02-28T01:46:50;5.97;;;1.63;;
69623;SDS011;56843;52.020;5.670;2023-02-28T01:48:23;5.53;;;1.50;;
69623;SDS011;56843;52.020;5.670;2023-02-28T01:49:57;6.40;;;1.30;;
69623;SDS011;56843;52.020;5.670;2023-02-28T01:51:37;7.70;;;1.48;;
69623;SDS011;56843;52.020;5.670;2023-02-28T01:53:22;6.03;;;1.40;;
69623;SDS011;56843;52.020;5.670;2023-02-28T01:55:01;4.83;;;1.40;;
69623;SDS011;56843;52.020;5.670;2023-02-28T01:56:34;5.13;;;1.60;;
69623;SDS011;56843;52.020;5.670;2023-02-28T01:58:08;6.75;;;1.27;;
69623;SDS011;56843;52.020;5.670;2023-02-28T02:03:13;7.37;;;1.53;;
69623;SDS011;56843;52.020;5.670;2023-02-28T02:05:03;6.90;;;1.80;;
69623;SDS011;56843;52.020;5.670;2023-02-28T02:06:38;6.07;;;1.48;;
69623;SDS011;56843;52.020;5.670;2023-02-28T02:08:18;6.07;;;1.30;;
69623;SDS011;56843;52.020;5.670;2023-02-28T02:09:59;5.25;;;1.52;;
69623;SDS011;56843;52.020;5.670;2023-02-28T02:11:35;7.25;;;1.17;;
69623;SDS011;56843;52.020;5.670;2023-02-28T02:14:53;6.22;;;1.45;;
69623;SDS011;56843;52.020;5.670;2023-02-28T02:18:26;4.63;;;1.63;;
69623;SDS011;56843;52.020;5.670;2023-02-28T02:20:13;3.90;;;1.40;;
69623;SDS011;56843;52.020;5.670;2023-02-28T02:27:03;5.60;;;1.30;;
69623;SDS011;56843;52.020;5.670;2023-02-28T02:28:22;3.95;;;1.15;;
69623;SDS011;56843;52.020;5.670;2023-02-28T02:32:01;10.15;;;1.55;;
69623;SDS011;56843;52.020;5.670;2023-02-28T02:39:39;5.30;;;1.63;;
69623;SDS011;56843;52.020;5.670;2023-02-28T02:41:26;10.23;;;1.58;;
69623;SDS011;56843;52.020;5.670;2023-02-28T02:43:11;6.72;;;1.70;;
69623;SDS011;56843;52.020;5.670;2023-02-28T02:45:10;9.45;;;1.83;;
69623;SDS011;56843;52.020;5.670;2023-02-28T02:46:47;4.90;;;1.70;;
69623;SDS011;56843;52.020;5.670;2023-02-28T02:48:21;4.95;;;1.50;;
69623;SDS011;56843;52.020;5.670;2023-02-28T02:49:57;11.95;;;1.42;;
69623;SDS011;56843;52.020;5.670;2023-02-28T02:51:34;5.40;;;1.70;;
69623;SDS011;56843;52.020;5.670;2023-02-28T02:53:08;9.63;;;1.63;;
69623;SDS011;56843;52.020;5.670;2023-02-28T02:54:43;5.60;;;1.10;;
69623;SDS011;56843;52.020;5.670;2023-02-28T02:56:21;4.30;;;1.40;;
69623;SDS011;56843;52.020;5.670;2023-02-28T02:57:58;5.07;;;1.63;;
69623;SDS011;56843;52.020;5.670;2023-02-28T02:59:34;4.45;;;1.50;;
69623;SDS011;56843;52.020;5.670;2023-02-28T03:01:06;6.78;;;1.63;;
69623;SDS011;56843;52.020;5.670;2023-02-28T03:02:39;11.30;;;1.60;;
69623;SDS011;56843;52.020;5.670;2023-02-28T03:04:12;7.45;;;1.67;;
69623;SDS011;56843;52.020;5.670;2023-02-28T03:05:48;4.03;;;1.40;;
69623;SDS011;56843;52.020;5.670;2023-02-28T03:07:20;4.05;;;1.42;;
69623;SDS011;56843;52.020;5.670;2023-02-28T03:08:52;2.85;;;1.00;;
69623;SDS011;56843;52.020;5.670;2023-02-28T03:10:56;7.63;;;1.40;;
69623;SDS011;56843;52.020;5.670;2023-02-28T03:12:22;6.47;;;1.77;;
69623;SDS011;56843;52.020;5.670;2023-02-28T03:17:30;4.93;;;1.30;;
69623;SDS011;56843;52.020;5.670;2023-02-28T03:19:45;4.30;;;1.60;;
69623;SDS011;56843;52.020;5.670;2023-02-28T03:21:23;5.00;;;1.55;;
69623;SDS011;56843;52.020;5.670;2023-02-28T03:26:17;6.50;;;1.60;;
69623;SDS011;56843;52.020;5.670;2023-02-28T03:27:59;4.80;;;1.27;;
69623;SDS011;56843;52.020;5.670;2023-02-28T03:29:35;4.72;;;1.42;;
69623;SDS011;56843;52.020;5.670;2023-02-28T03:31:17;4.10;;;1.30;;
69623;SDS011;56843;52.020;5.670;2023-02-28T03:32:59;4.25;;;1.52;;
69623;SDS011;56843;52.020;5.670;2023-02-28T03:34:56;8.18;;;1.58;;
69623;SDS011;56843;52.020;5.670;2023-02-28T03:36:39;6.63;;;1.15;;
69623;SDS011;56843;52.020;5.670;2023-02-28T03:38:18;3.97;;;1.40;;
69623;SDS011;56843;52.020;5.670;2023-02-28T03:40:01;4.15;;;1.20;;
69623;SDS011;56843;52.020;5.670;2023-02-28T03:41:57;5.28;;;1.35;;
69623;SDS011;56843;52.020;5.670;2023-02-28T03:43:32;5.00;;;1.73;;
69623;SDS011;56843;52.020;5.670;2023-02-28T03:45:09;5.70;;;1.40;;
69623;SDS011;56843;52.020;5.670;2023-02-28T03:46:47;4.85;;;1.38;;
69623;SDS011;56843;52.020;5.670;2023-02-28T03:48:26;4.57;;;1.30;;
69623;SDS011;56843;52.020;5.670;2023-02-28T03:50:18;5.00;;;1.30;;
69623;SDS011;56843;52.020;5.670;2023-02-28T03:51:56;8.00;;;1.60;;
69623;SDS011;56843;52.020;5.670;2023-02-28T03:53:32;4.53;;;1.15;;
69623;SDS011;56843;52.020;5.670;2023-02-28T03:55:07;6.18;;;1.27;;
69623;SDS011;56843;52.020;5.670;2023-02-28T03:56:43;4.07;;;1.40;;
69623;SDS011;56843;52.020;5.670;2023-02-28T03:58:32;8.23;;;1.40;;
69623;SDS011;56843;52.020;5.670;2023-02-28T04:01:47;7.23;;;1.27;;
69623;SDS011;56843;52.020;5.670;2023-02-28T04:03:19;4.53;;;1.33;;
69623;SDS011;56843;52.020;5.670;2023-02-28T04:04:49;7.25;;;1.30;;
69623;SDS011;56843;52.020;5.670;2023-02-28T04:06:22;4.00;;;1.30;;
69623;SDS011;56843;52.020;5.670;2023-02-28T04:07:53;5.00;;;1.23;;
69623;SDS011;56843;52.020;5.670;2023-02-28T04:09:24;3.97;;;1.40;;
69623;SDS011;56843;52.020;5.670;2023-02-28T04:11:01;4.27;;;1.40;;
69623;SDS011;56843;52.020;5.670;2023-02-28T04:12:36;3.90;;;1.20;;
69623;SDS011;56843;52.020;5.670;2023-02-28T04:14:07;3.33;;;1.20;;
69623;SDS011;56843;52.020;5.670;2023-02-28T04:15:39;3.13;;;1.20;;
69623;SDS011;56843;52.020;5.670;2023-02-28T04:17:10;2.58;;;0.90;;
69623;SDS011;56843;52.020;5.670;2023-02-28T04:18:41;3.60;;;1.07;;
69623;SDS011;56843;52.020;5.670;2023-02-28T04:20:15;3.15;;;1.20;;
69623;SDS011;56843;52.020;5.670;2023-02-28T04:21:52;3.10;;;1.23;;
69623;SDS011;56843;52.020;5.670;2023-02-28T04:23:23;2.58;;;1.00;;
69623;SDS011;56843;52.020;5.670;2023-02-28T04:24:54;3.47;;;1.23;;
69623;SDS011;56843;52.020;5.670;2023-02-28T04:26:24;3.45;;;1.00;;
69623;SDS011;56843;52.020;5.670;2023-02-28T04:27:55;3.63;;;1.37;;
69623;SDS011;56843;52.020;5.670;2023-02-28T04:29:26;3.23;;;1.20;;
69623;SDS011;56843;52.020;5.670;2023-02-28T04:30:59;5.32;;;1.40;;
69623;SDS011;56843;52.020;5.670;2023-02-28T04:32:32;3.80;;;1.40;;
69623;SDS011;56843;52.020;5.670;2023-02-28T04:34:03;2.90;;;0.90;;
69623;SDS011;56843;52.020;5.670;2023-02-28T04:35:34;3.45;;;1.20;;
69623;SDS011;56843;52.020;5.670;2023-02-28T04:37:04;2.90;;;1.10;;
69623;SDS011;56843;52.020;5.670;2023-02-28T04:38:36;7.10;;;1.30;;
69623;SDS011;56843;52.020;5.670;2023-02-28T04:40:08;2.92;;;1.00;;
69623;SDS011;56843;52.020;5.670;2023-02-28T04:41:39;6.30;;;1.40;;
69623;SDS011;56843;52.020;5.670;2023-02-28T04:43:09;2.10;;;0.83;;
69623;SDS011;56843;52.020;5.670;2023-02-28T04:44:40;4.57;;;1.27;;
69623;SDS011;56843;52.020;5.670;2023-02-28T04:46:10;3.20;;;0.90;;
69623;SDS011;56843;52.020;5.670;2023-02-28T04:47:41;4.73;;;1.07;;
69623;SDS011;56843;52.020;5.670;2023-02-28T04:49:12;3.15;;;1.20;;
69623;SDS011;56843;52.020;5.670;2023-02-28T04:50:43;3.73;;;1.07;;
69623;SDS011;56843;52.020;5.670;2023-02-28T04:52:13;3.05;;;1.10;;
69623;SDS011;56843;52.020;5.670;2023-02-28T04:53:44;2.90;;;0.90;;
69623;SDS011;56843;52.020;5.670;2023-02-28T04:55:15;3.67;;;1.00;;
69623;SDS011;56843;52.020;5.670;2023-02-28T04:56:45;6.10;;;1.20;;
69623;SDS011;56843;52.020;5.670;2023-02-28T04:58:16;5.30;;;1.05;;
69623;SDS011;56843;52.020;5.670;2023-02-28T04:59:46;2.33;;;0.90;;
69623;SDS011;56843;52.020;5.670;2023-02-28T05:02:55;3.10;;;0.90;;
69623;SDS011;56843;52.020;5.670;2023-02-28T05:04:25;2.40;;;0.83;;
69623;SDS011;56843;52.020;5.670;2023-02-28T05:05:56;2.83;;;1.13;;
69623;SDS011;56843;52.020;5.670;2023-02-28T05:07:27;2.20;;;1.00;;
69623;SDS011;56843;52.020;5.670;2023-02-28T05:08:57;5.10;;;1.40;;
69623;SDS011;56843;52.020;5.670;2023-02-28T05:10:29;3.70;;;1.00;;
69623;SDS011;56843;52.020;5.670;2023-02-28T05:11:59;2.17;;;0.90;;
69623;SDS011;56843;52.020;5.670;2023-02-28T05:13:31;3.30;;;1.25;;
69623;SDS011;56843;52.020;5.670;2023-02-28T05:15:02;4.53;;;1.00;;
69623;SDS011;56843;52.020;5.670;2023-02-28T05:16:34;3.83;;;0.90;;
69623;SDS011;56843;52.020;5.670;2023-02-28T05:18:05;2.17;;;0.93;;
69623;SDS011;56843;52.020;5.670;2023-02-28T05:19:36;2.70;;;1.05;;
69623;SDS011;56843;52.020;5.670;2023-02-28T05:21:12;2.60;;;1.00;;
69623;SDS011;56843;52.020;5.670;2023-02-28T05:22:54;2.10;;;0.70;;
69623;SDS011;56843;52.020;5.670;2023-02-28T05:24:24;3.70;;;1.00;;
69623;SDS011;56843;52.020;5.670;2023-02-28T05:25:56;2.42;;;1.08;;
69623;SDS011;56843;52.020;5.670;2023-02-28T05:27:26;2.50;;;0.85;;
69623;SDS011;56843;52.020;5.670;2023-02-28T05:28:58;2.45;;;0.77;;
69623;SDS011;56843;52.020;5.670;2023-02-28T05:30:28;3.77;;;1.00;;
69623;SDS011;56843;52.020;5.670;2023-02-28T05:32:00;2.47;;;0.93;;
69623;SDS011;56843;52.020;5.670;2023-02-28T05:33:30;3.67;;;0.97;;
69623;SDS011;56843;52.020;5.670;2023-02-28T05:35:01;3.10;;;1.05;;
69623;SDS011;56843;52.020;5.670;2023-02-28T05:36:32;2.20;;;0.90;;
69623;SDS011;56843;52.020;5.670;2023-02-28T05:38:03;2.70;;;0.98;;
69623;SDS011;56843;52.020;5.670;2023-02-28T05:39:33;2.40;;;0.80;;
69623;SDS011;56843;52.020;5.670;2023-02-28T05:41:05;2.30;;;0.77;;
69623;SDS011;56843;52.020;5.670;2023-02-28T05:42:39;2.65;;;0.93;;
69623;SDS011;56843;52.020;5.670;2023-02-28T05:44:10;4.13;;;1.20;;
69623;SDS011;56843;52.020;5.670;2023-02-28T05:45:41;6.53;;;1.17;;
69623;SDS011;56843;52.020;5.670;2023-02-28T05:47:11;2.37;;;0.90;;
69623;SDS011;56843;52.020;5.670;2023-02-28T05:48:46;4.40;;;1.03;;
69623;SDS011;56843;52.020;5.670;2023-02-28T05:50:17;2.55;;;0.80;;
69623;SDS011;56843;52.020;5.670;2023-02-28T05:51:48;2.35;;;0.90;;
69623;SDS011;56843;52.020;5.670;2023-02-28T05:53:18;2.07;;;0.90;;
69623;SDS011;56843;52.020;5.670;2023-02-28T05:54:49;2.60;;;1.10;;
69623;SDS011;56843;52.020;5.670;2023-02-28T05:56:19;2.73;;;1.07;;
69623;SDS011;56843;52.020;5.670;2023-02-28T05:57:50;2.50;;;1.13;;
69623;SDS011;56843;52.020;5.670;2023-02-28T05:59:20;2.17;;;0.93;;
69623;SDS011;56843;52.020;5.670;2023-02-28T06:00:51;2.60;;;1.10;;
69623;SDS011;56843;52.020;5.670;2023-02-28T06:02:22;3.90;;;1.10;;
69623;SDS011;56843;52.020;5.670;2023-02-28T06:03:52;2.07;;;0.83;;
69623;SDS011;56843;52.020;5.670;2023-02-28T06:05:23;3.87;;;1.40;;
69623;SDS011;56843;52.020;5.670;2023-02-28T06:06:54;4.57;;;1.65;;
69623;SDS011;56843;52.020;5.670;2023-02-28T06:08:27;3.03;;;0.90;;
69623;SDS011;56843;52.020;5.670;2023-02-28T06:09:58;6.15;;;1.40;;
69623;SDS011;56843;52.020;5.670;2023-02-28T06:11:28;3.83;;;1.30;;
69623;SDS011;56843;52.020;5.670;2023-02-28T06:12:59;3.17;;;1.30;;
69623;SDS011;56843;52.020;5.670;2023-02-28T06:14:33;3.97;;;1.10;;
69623;SDS011;56843;52.020;5.670;2023-02-28T06:16:04;4.38;;;1.30;;
69623;SDS011;56843;52.020;5.670;2023-02-28T06:17:34;2.90;;;1.13;;
69623;SDS011;56843;52.020;5.670;2023-02-28T06:19:05;8.97;;;1.20;;
69623;SDS011;56843;52.020;5.670;2023-02-28T06:20:35;6.93;;;1.20;;
69623;SDS011;56843;52.020;5.670;2023-02-28T06:22:06;2.80;;;1.00;;
69623;SDS011;56843;52.020;5.670;2023-02-28T06:23:37;1.83;;;0.80;;
69623;SDS011;56843;52.020;5.670;2023-02-28T06:25:08;2.53;;;0.95;;
69623;SDS011;56843;52.020;5.670;2023-02-28T06:26:40;4.05;;;1.40;;
69623;SDS011;56843;52.020;5.670;2023-02-28T06:28:10;3.33;;;1.50;;
69623;SDS011;56843;52.020;5.670;2023-02-28T06:29:41;3.47;;;1.20;;
69623;SDS011;56843;52.020;5.670;2023-02-28T06:31:12;3.60;;;1.48;;
69623;SDS011;56843;52.020;5.670;2023-02-28T06:32:44;2.70;;;1.10;;
69623;SDS011;56843;52.020;5.670;2023-02-28T06:34:15;3.33;;;1.30;;
69623;SDS011;56843;52.020;5.670;2023-02-28T06:35:47;2.67;;;1.02;;
69623;SDS011;56843;52.020;5.670;2023-02-28T06:37:20;4.25;;;1.33;;
69623;SDS011;56843;52.020;5.670;2023-02-28T06:38:51;11.00;;;1.27;;
69623;SDS011;56843;52.020;5.670;2023-02-28T06:40:24;5.20;;;1.23;;
69623;SDS011;56843;52.020;5.670;2023-02-28T06:41:55;7.88;;;1.35;;
69623;SDS011;56843;52.020;5.670;2023-02-28T06:43:27;3.20;;;1.20;;
69623;SDS011;56843;52.020;5.670;2023-02-28T06:44:59;6.25;;;1.00;;
69623;SDS011;56843;52.020;5.670;2023-02-28T06:46:29;15.87;;;1.60;;
69623;SDS011;56843;52.020;5.670;2023-02-28T06:48:00;4.10;;;1.20;;
69623;SDS011;56843;52.020;5.670;2023-02-28T06:49:31;4.65;;;1.02;;
69623;SDS011;56843;52.020;5.670;2023-02-28T06:51:07;6.37;;;1.30;;
69623;SDS011;56843;52.020;5.670;2023-02-28T06:52:39;6.60;;;1.00;;
69623;SDS011;56843;52.020;5.670;2023-02-28T06:54:10;5.18;;;1.33;;
69623;SDS011;56843;52.020;5.670;2023-02-28T06:55:41;2.65;;;1.10;;
69623;SDS011;56843;52.020;5.670;2023-02-28T06:57:12;3.70;;;1.47;;
69623;SDS011;56843;52.020;5.670;2023-02-28T06:58:45;4.40;;;1.60;;
69623;SDS011;56843;52.020;5.670;2023-02-28T07:00:20;2.33;;;0.98;;
69623;SDS011;56843;52.020;5.670;2023-02-28T07:01:50;2.65;;;1.00;;
69623;SDS011;56843;52.020;5.670;2023-02-28T07:03:22;2.88;;;1.20;;
69623;SDS011;56843;52.020;5.670;2023-02-28T07:04:53;4.43;;;1.20;;
69623;SDS011;56843;52.020;5.670;2023-02-28T07:06:24;5.97;;;1.27;;
69623;SDS011;56843;52.020;5.670;2023-02-28T07:07:55;2.58;;;0.90;;
69623;SDS011;56843;52.020;5.670;2023-02-28T07:09:25;2.58;;;0.82;;
69623;SDS011;56843;52.020;5.670;2023-02-28T07:10:59;3.30;;;1.05;;
69623;SDS011;56843;52.020;5.670;2023-02-28T07:12:30;2.73;;;1.20;;
69623;SDS011;56843;52.020;5.670;2023-02-28T07:14:00;2.43;;;1.00;;
69623;SDS011;56843;52.020;5.670;2023-02-28T07:15:31;7.35;;;0.95;;
69623;SDS011;56843;52.020;5.670;2023-02-28T07:17:02;2.90;;;1.00;;
69623;SDS011;56843;52.020;5.670;2023-02-28T07:18:32;3.03;;;0.80;;
69623;SDS011;56843;52.020;5.670;2023-02-28T07:20:03;3.05;;;0.70;;
69623;SDS011;56843;52.020;5.670;2023-02-28T07:21:34;3.72;;;1.00;;
69623;SDS011;56843;52.020;5.670;2023-02-28T07:23:05;3.53;;;0.93;;
69623;SDS011;56843;52.020;5.670;2023-02-28T07:24:35;3.57;;;0.80;;
69623;SDS011;56843;52.020;5.670;2023-02-28T07:26:06;2.85;;;0.80;;
69623;SDS011;56843;52.020;5.670;2023-02-28T07:27:38;3.92;;;0.90;;
69623;SDS011;56843;52.020;5.670;2023-02-28T07:29:08;2.33;;;0.93;;
69623;SDS011;56843;52.020;5.670;2023-02-28T07:30:39;2.70;;;0.90;;
69623;SDS011;56843;52.020;5.670;2023-02-28T07:32:09;3.63;;;1.03;;
69623;SDS011;56843;52.020;5.670;2023-02-28T07:33:40;1.67;;;0.70;;
69623;SDS011;56843;52.020;5.670;2023-02-28T07:35:11;3.20;;;1.00;;
69623;SDS011;56843;52.020;5.670;2023-02-28T07:36:41;3.15;;;0.80;;
69623;SDS011;56843;52.020;5.670;2023-02-28T07:38:12;3.90;;;1.00;;
69623;SDS011;56843;52.020;5.670;2023-02-28T07:39:43;3.25;;;1.05;;
69623;SDS011;56843;52.020;5.670;2023-02-28T07:41:14;2.00;;;0.80;;
69623;SDS011;56843;52.020;5.670;2023-02-28T07:42:46;2.97;;;1.10;;
69623;SDS011;56843;52.020;5.670;2023-02-28T07:44:20;3.72;;;0.90;;
69623;SDS011;56843;52.020;5.670;2023-02-28T07:45:51;4.67;;;1.20;;
69623;SDS011;56843;52.020;5.670;2023-02-28T07:47:21;4.45;;;1.00;;
69623;SDS011;56843;52.020;5.670;2023-02-28T07:48:52;4.93;;;1.00;;
69623;SDS011;56843;52.020;5.670;2023-02-28T07:50:24;10.95;;;5.63;;
69623;SDS011;56843;52.020;5.670;2023-02-28T07:51:54;4.05;;;1.75;;
69623;SDS011;56843;52.020;5.670;2023-02-28T07:53:25;2.20;;;0.83;;
69623;SDS011;56843;52.020;5.670;2023-02-28T07:54:57;6.72;;;1.02;;
69623;SDS011;56843;52.020;5.670;2023-02-28T07:56:27;3.57;;;0.90;;
69623;SDS011;56843;52.020;5.670;2023-02-28T07:57:58;2.80;;;1.00;;
69623;SDS011;56843;52.020;5.670;2023-02-28T07:59:28;2.83;;;0.90;;
69623;SDS011;56843;52.020;5.670;2023-02-28T08:01:08;4.83;;;0.83;;
69623;SDS011;56843;52.020;5.670;2023-02-28T08:02:40;3.30;;;1.02;;
69623;SDS011;56843;52.020;5.670;2023-02-28T08:04:11;2.25;;;0.80;;
69623;SDS011;56843;52.020;5.670;2023-02-28T08:05:41;2.63;;;0.97;;
69623;SDS011;56843;52.020;5.670;2023-02-28T08:07:12;2.20;;;0.80;;
69623;SDS011;56843;52.020;5.670;2023-02-28T08:08:43;2.65;;;0.77;;
69623;SDS011;56843;52.020;5.670;2023-02-28T08:10:14;3.40;;;0.90;;
69623;SDS011;56843;52.020;5.670;2023-02-28T08:11:45;3.53;;;1.05;;
69623;SDS011;56843;52.020;5.670;2023-02-28T08:13:15;5.27;;;1.10;;
69623;SDS011;56843;52.020;5.670;2023-02-28T08:14:46;3.67;;;1.20;;
69623;SDS011;56843;52.020;5.670;2023-02-28T08:16:16;2.20;;;1.00;;
69623;SDS011;56843;52.020;5.670;2023-02-28T08:17:52;2.88;;;1.10;;
69623;SDS011;56843;52.020;5.670;2023-02-28T08:19:22;2.58;;;1.00;;
69623;SDS011;56843;52.020;5.670;2023-02-28T08:20:53;2.73;;;0.90;;
69623;SDS011;56843;52.020;5.670;2023-02-28T08:22:23;4.27;;;0.97;;
69623;SDS011;56843;52.020;5.670;2023-02-28T08:23:53;2.28;;;0.75;;
69623;SDS011;56843;52.020;5.670;2023-02-28T08:25:24;2.50;;;1.10;;
69623;SDS011;56843;52.020;5.670;2023-02-28T08:26:55;3.00;;;1.20;;
69623;SDS011;56843;52.020;5.670;2023-02-28T08:28:25;2.90;;;0.98;;
69623;SDS011;56843;52.020;5.670;2023-02-28T08:29:56;2.20;;;1.00;;
69623;SDS011;56843;52.020;5.670;2023-02-28T08:31:26;3.00;;;1.20;;
69623;SDS011;56843;52.020;5.670;2023-02-28T08:32:57;2.53;;;1.00;;
69623;SDS011;56843;52.020;5.670;2023-02-28T08:34:28;1.93;;;0.90;;
69623;SDS011;56843;52.020;5.670;2023-02-28T08:35:58;2.60;;;1.10;;
69623;SDS011;56843;52.020;5.670;2023-02-28T08:37:29;3.37;;;1.00;;
69623;SDS011;56843;52.020;5.670;2023-02-28T08:38:59;1.93;;;0.90;;
69623;SDS011;56843;52.020;5.670;2023-02-28T08:40:30;5.47;;;1.10;;
69623;SDS011;56843;52.020;5.670;2023-02-28T08:42:00;2.17;;;0.87;;
69623;SDS011;56843;52.020;5.670;2023-02-28T08:43:32;3.08;;;0.80;;
69623;SDS011;56843;52.020;5.670;2023-02-28T08:45:04;2.88;;;1.00;;
69623;SDS011;56843;52.020;5.670;2023-02-28T08:46:35;5.18;;;1.35;;
69623;SDS011;56843;52.020;5.670;2023-02-28T08:48:06;6.47;;;1.43;;
69623;SDS011;56843;52.020;5.670;2023-02-28T08:49:36;3.60;;;1.30;;
69623;SDS011;56843;52.020;5.670;2023-02-28T08:51:08;6.00;;;1.20;;
69623;SDS011;56843;52.020;5.670;2023-02-28T08:52:44;4.43;;;1.30;;
69623;SDS011;56843;52.020;5.670;2023-02-28T08:54:14;5.60;;;1.55;;
69623;SDS011;56843;52.020;5.670;2023-02-28T08:55:56;3.13;;;1.23;;
69623;SDS011;56843;52.020;5.670;2023-02-28T08:57:30;3.05;;;1.05;;
69623;SDS011;56843;52.020;5.670;2023-02-28T08:59:01;5.03;;;1.23;;
69623;SDS011;56843;52.020;5.670;2023-02-28T09:00:31;3.45;;;1.30;;
69623;SDS011;56843;52.020;5.670;2023-02-28T09:02:02;13.63;;;3.70;;
69623;SDS011;56843;52.020;5.670;2023-02-28T09:03:33;4.40;;;1.30;;
69623;SDS011;56843;52.020;5.670;2023-02-28T09:05:03;8.23;;;1.53;;
69623;SDS011;56843;52.020;5.670;2023-02-28T09:06:34;6.20;;;1.63;;
69623;SDS011;56843;52.020;5.670;2023-02-28T09:08:05;3.85;;;1.42;;
69623;SDS011;56843;52.020;5.670;2023-02-28T09:09:36;5.80;;;1.50;;
69623;SDS011;56843;52.020;5.670;2023-02-28T09:11:07;7.10;;;3.28;;
69623;SDS011;56843;52.020;5.670;2023-02-28T09:12:38;3.38;;;1.20;;
69623;SDS011;56843;52.020;5.670;2023-02-28T09:14:08;3.53;;;1.40;;
69623;SDS011;56843;52.020;5.670;2023-02-28T09:15:39;3.17;;;1.30;;
69623;SDS011;56843;52.020;5.670;2023-02-28T09:17:10;4.73;;;1.40;;
69623;SDS011;56843;52.020;5.670;2023-02-28T09:18:41;7.88;;;1.15;;
69623;SDS011;56843;52.020;5.670;2023-02-28T09:20:11;5.67;;;1.50;;
69623;SDS011;56843;52.020;5.670;2023-02-28T09:21:42;4.33;;;1.50;;
69623;SDS011;56843;52.020;5.670;2023-02-28T09:23:12;4.20;;;1.47;;
69623;SDS011;56843;52.020;5.670;2023-02-28T09:24:43;6.10;;;1.77;;
69623;SDS011;56843;52.020;5.670;2023-02-28T09:26:18;2.97;;;1.17;;
69623;SDS011;56843;52.020;5.670;2023-02-28T09:27:49;4.20;;;1.50;;
69623;SDS011;56843;52.020;5.670;2023-02-28T09:29:19;4.45;;;1.20;;
69623;SDS011;56843;52.020;5.670;2023-02-28T09:30:51;3.93;;;1.40;;
69623;SDS011;56843;52.020;5.670;2023-02-28T09:32:23;4.00;;;1.40;;
69623;SDS011;56843;52.020;5.670;2023-02-28T09:33:54;4.55;;;1.30;;
69623;SDS011;56843;52.020;5.670;2023-02-28T09:35:26;5.60;;;1.53;;
69623;SDS011;56843;52.020;5.670;2023-02-28T09:36:57;12.37;;;1.90;;
69623;SDS011;56843;52.020;5.670;2023-02-28T09:38:28;7.40;;;2.10;;
69623;SDS011;56843;52.020;5.670;2023-02-28T09:39:58;4.37;;;1.37;;
69623;SDS011;56843;52.020;5.670;2023-02-28T09:41:31;4.15;;;1.50;;
69623;SDS011;56843;52.020;5.670;2023-02-28T09:43:18;4.57;;;2.03;;
69623;SDS011;56843;52.020;5.670;2023-02-28T09:44:52;6.27;;;2.70;;
69623;SDS011;56843;52.020;5.670;2023-02-28T09:46:31;13.50;;;4.57;;
69623;SDS011;56843;52.020;5.670;2023-02-28T09:48:50;20.08;;;4.93;;
69623;SDS011;56843;52.020;5.670;2023-02-28T09:49:58;32.35;;;6.80;;
69623;SDS011;56843;52.020;5.670;2023-02-28T09:51:53;14.88;;;4.65;;